Time;durP1;ratioP1;P1;durP2;ratioP2;P2;SDS_P1;SDS_P2;PMS_P1;PMS_P2;Temp;Humidity;BMP_temperature;BMP_pressure;BME280_temperature;BME280_humidity;BME280_pressure;Samples;Min_cycle;Max_cycle;Signal;HPM_P1;HPM_P2
2022/02/06 00:00:30;;;;;;;;;1.75;1.75;;;;;11.18;55.31;101899.13;5039111;28;45353;-67
2022/02/06 00:02:56;;;;;;;;;4.25;2.50;;;;;11.19;55.12;101891.97;5039052;28;46981;-68
2022/02/06 00:05:22;;;;;;;;;2.00;2.00;;;;;11.16;55.59;101886.69;5034838;28;45765;-68
2022/02/06 00:07:48;;;;;;;;;3.25;3.00;;;;;11.17;55.12;101875.09;5038739;28;45324;-68
2022/02/06 00:10:14;;;;;;;;;5.50;4.50;;;;;11.16;55.04;101873.31;5037593;28;45511;-68
2022/02/06 00:12:40;;;;;;;;;2.00;1.50;;;;;11.09;55.16;101865.44;5033307;28;46413;-68
2022/02/06 00:15:05;;;;;;;;;2.25;2.00;;;;;11.09;55.27;101853.84;5038638;28;45237;-68
2022/02/06 00:17:31;;;;;;;;;4.00;3.00;;;;;11.07;55.54;101844.97;5038743;28;45321;-68
2022/02/06 00:19:57;;;;;;;;;5.50;3.00;;;;;11.10;55.43;101839.56;5038728;28;45285;-68
2022/02/06 00:25:13;;;;;;;;;2.00;2.00;;;;;11.08;55.92;101828.03;5041829;28;45317;-68
2022/02/06 00:30:17;;;;;;;;;5.00;3.75;;;;;11.07;55.37;101829.81;5042152;28;45374;-68
2022/02/06 00:32:47;;;;;;;;;4.00;2.00;;;;;11.02;55.78;101822.78;5041281;28;46345;-68
2022/02/06 00:35:32;;;;;;;;;2.00;2.00;;;;;11.04;55.91;101832.56;5041513;28;45765;-68
2022/02/06 00:43:20;;;;;;;;;5.50;3.00;;;;;11.01;55.65;101831.69;5030419;28;45465;-68
2022/02/06 00:45:46;;;;;;;;;2.50;2.50;;;;;11.03;55.84;101817.41;5041655;28;45371;-68
2022/02/06 00:48:12;;;;;;;;;5.25;2.00;;;;;11.01;55.94;101795.19;5041789;28;45246;-68
2022/02/06 00:50:42;;;;;;;;;2.50;1.75;;;;;11.03;55.72;101797.84;5041345;28;45250;-68
2022/02/06 00:53:15;;;;;;;;;5.00;4.00;;;;;11.00;56.10;101792.56;5028424;28;46473;-68
2022/02/06 00:55:40;;;;;;;;;5.00;2.50;;;;;10.99;56.10;101785.44;5041401;28;45511;-68
2022/02/06 00:58:06;;;;;;;;;1.50;1.50;;;;;11.01;55.87;101786.28;5041250;28;45451;-68
2022/02/06 01:00:32;;;;;;;;;1.75;1.75;;;;;10.99;55.77;101794.31;5040232;28;45295;-68
2022/02/06 01:02:57;;;;;;;;;3.75;3.00;;;;;10.97;56.27;101796.16;5040005;28;45772;-68
2022/02/06 01:05:22;;;;;;;;;5.00;1.75;;;;;10.97;56.06;101804.16;5029434;28;45352;-68
2022/02/06 01:07:49;;;;;;;;;4.25;3.00;;;;;10.98;56.43;101791.72;5041139;28;45261;-68
2022/02/06 01:10:15;;;;;;;;;2.00;2.00;;;;;10.97;56.16;101790.78;5041181;28;45580;-68
2022/02/06 01:12:44;;;;;;;;;2.00;1.00;;;;;10.96;56.09;101794.41;5040936;28;45348;-68
2022/02/06 01:15:15;;;;;;;;;3.00;2.00;;;;;10.96;56.68;101796.16;5040869;28;45337;-68
2022/02/06 01:17:53;;;;;;;;;2.00;2.00;;;;;10.94;56.68;101804.19;5041369;28;45579;-68
2022/02/06 01:20:27;;;;;;;;;1.25;1.25;;;;;10.94;56.34;101793.53;5039180;28;45445;-68
2022/02/06 01:23:05;;;;;;;;;4.75;2.50;;;;;10.92;56.42;101795.34;5040960;28;47105;-68
2022/02/06 01:25:37;;;;;;;;;3.00;2.00;;;;;10.90;56.15;101789.16;5040838;28;45479;-68
2022/02/06 01:28:08;;;;;;;;;2.00;1.00;;;;;10.89;56.38;101792.72;5041215;28;45398;-68
2022/02/06 01:33:06;;;;;;;;;2.00;2.00;;;;;10.93;56.34;101792.66;5040997;28;45296;-68
2022/02/06 01:35:48;;;;;;;;;3.50;2.25;;;;;10.93;56.47;101783.75;5041031;28;45503;-68
2022/02/06 01:43:18;;;;;;;;;2.00;2.00;;;;;10.87;56.68;101783.84;5033157;28;45376;-68
2022/02/06 02:05:27;;;;;;;;;2.75;1.75;;;;;10.93;57.04;101741.88;5039541;28;45424;-68
2022/02/06 02:12:54;;;;;;;;;2.75;2.75;;;;;10.93;56.70;101716.97;5039845;28;45349;-68
2022/02/06 02:26:23;;;;;;;;;2.00;2.00;;;;;10.98;57.08;101714.22;5040039;28;45419;-68
2022/02/06 02:31:17;;;;;;;;;3.00;1.50;;;;;10.96;56.53;101714.25;5040049;28;45253;-68
2022/02/06 02:49:35;;;;;;;;;3.75;1.25;;;;;10.99;56.62;101716.84;5039807;28;45603;-68
2022/02/06 02:52:07;;;;;;;;;2.75;1.00;;;;;10.96;56.89;101700.91;5037921;28;45316;-68
2022/02/06 02:54:34;;;;;;;;;2.00;1.25;;;;;10.98;56.78;101704.41;5039402;28;45406;-68
2022/02/06 02:57:15;;;;;;;;;1.00;1.00;;;;;10.99;56.75;101700.81;5038487;28;47030;-68
2022/02/06 03:00:04;;;;;;;;;2.00;1.00;;;;;10.99;56.82;101705.28;5029891;28;45381;-68
2022/02/06 03:02:29;;;;;;;;;0.25;0.25;;;;;10.99;57.18;101690.13;5026563;28;45321;-68
2022/02/06 03:04:57;;;;;;;;;2.00;2.00;;;;;11.01;56.55;101679.41;5039554;28;45617;-68
2022/02/06 03:07:22;;;;;;;;;1.50;1.00;;;;;10.99;56.76;101670.56;5039392;28;46200;-68
2022/02/06 03:09:49;;;;;;;;;3.00;1.75;;;;;11.05;56.88;101649.94;5037985;28;45537;-68
2022/02/06 03:12:18;;;;;;;;;3.00;1.75;;;;;11.06;56.97;101653.47;5039568;28;45412;-68
2022/02/06 03:14:50;;;;;;;;;1.00;1.00;;;;;11.05;57.32;101655.28;5038965;28;45368;-68
2022/02/06 03:17:31;;;;;;;;;0.00;0.00;;;;;11.04;56.79;101639.28;5039791;28;47242;-68
2022/02/06 03:20:05;;;;;;;;;0.75;0.75;;;;;11.07;57.10;101650.78;5035165;28;45555;-68
2022/02/06 03:22:35;;;;;;;;;2.50;2.50;;;;;11.01;57.38;101618.88;5031885;28;45297;-68
2022/02/06 03:25:06;;;;;;;;;1.50;1.50;;;;;11.02;57.55;101604.56;5030827;28;45440;-68
2022/02/06 03:27:31;;;;;;;;;2.75;1.25;;;;;11.00;57.64;101585.03;5039079;28;46344;-67
2022/02/06 03:29:57;;;;;;;;;2.75;1.50;;;;;10.94;57.17;101590.50;5039289;28;45415;-68
2022/02/06 03:32:22;;;;;;;;;2.00;1.00;;;;;11.00;57.75;101616.22;5039606;28;45272;-68
2022/02/06 03:34:47;;;;;;;;;2.00;1.00;;;;;11.04;57.43;101629.50;5038861;28;45286;-68
2022/02/06 03:37:13;;;;;;;;;1.00;1.00;;;;;11.02;57.58;101607.25;5039197;28;45447;-68
2022/02/06 03:39:39;;;;;;;;;1.00;1.00;;;;;11.00;58.01;101621.56;5039098;28;45378;-68
2022/02/06 03:42:12;;;;;;;;;2.50;2.00;;;;;11.04;58.06;101640.19;5037305;28;45501;-68
2022/02/06 03:44:45;;;;;;;;;2.00;2.00;;;;;11.05;58.12;101633.03;5038853;28;45400;-68
2022/02/06 03:47:17;;;;;;;;;1.50;1.50;;;;;11.07;58.25;101625.88;5039184;28;45396;-68
2022/02/06 03:49:54;;;;;;;;;4.00;2.00;;;;;11.05;58.16;101609.00;5036795;28;45766;-68
2022/02/06 03:52:23;;;;;;;;;2.50;2.50;;;;;11.02;58.42;101609.91;5035247;28;45372;-68
2022/02/06 03:54:49;;;;;;;;;2.00;2.00;;;;;11.04;58.40;101600.09;5038519;28;45881;-68
2022/02/06 03:57:14;;;;;;;;;2.75;1.25;;;;;11.07;58.43;101605.38;5041146;28;46214;-67
2022/02/06 03:59:39;;;;;;;;;1.00;1.00;;;;;11.05;58.31;101592.97;5040929;28;45334;-67
2022/02/06 04:02:05;;;;;;;;;3.00;1.25;;;;;11.09;57.81;101605.31;5042514;28;45329;-68
2022/02/06 04:04:31;;;;;;;;;1.25;0.75;;;;;11.09;58.16;101602.66;5042574;28;45312;-68
2022/02/06 04:07:06;;;;;;;;;3.00;2.00;;;;;11.08;58.03;101601.78;5042172;28;45998;-68
2022/02/06 04:09:39;;;;;;;;;2.00;1.50;;;;;11.05;58.02;101593.84;5042588;28;45532;-68
2022/02/06 04:12:05;;;;;;;;;2.50;1.75;;;;;11.01;58.32;101600.16;5041850;28;45483;-68
2022/02/06 04:14:40;;;;;;;;;2.25;2.25;;;;;11.03;58.54;101595.66;5040379;28;45328;-68
2022/02/06 04:17:18;;;;;;;;;3.00;2.00;;;;;11.00;58.41;101597.53;5042128;28;46306;-68
2022/02/06 04:19:44;;;;;;;;;3.00;2.00;;;;;11.03;58.55;101594.78;5042059;28;45436;-68
2022/02/06 04:22:09;;;;;;;;;2.75;2.50;;;;;11.02;58.76;101596.56;5041926;28;45289;-68
2022/02/06 04:24:35;;;;;;;;;1.75;1.75;;;;;11.00;58.78;101585.03;5024066;28;45255;-68
2022/02/06 04:27:00;;;;;;;;;1.75;1.00;;;;;11.04;58.28;101577.84;5042022;28;45369;-68
2022/02/06 04:29:25;;;;;;;;;2.50;2.50;;;;;11.05;58.52;101590.28;5042236;28;45359;-68
2022/02/06 04:31:51;;;;;;;;;2.25;1.00;;;;;11.05;58.83;101572.47;5040822;28;45443;-68
2022/02/06 04:34:21;;;;;;;;;2.25;2.25;;;;;11.06;58.78;101571.56;5041937;28;45492;-68
2022/02/06 04:37:16;;;;;;;;;2.50;1.75;;;;;11.05;58.71;101534.19;5040285;28;48001;-68
2022/02/06 04:42:38;;;;;;;;;4.00;2.00;;;;;11.02;59.10;101526.22;5041505;28;45497;-68
2022/02/06 04:48:14;;;;;;;;;2.00;2.00;;;;;10.96;59.04;101504.97;5041756;28;45303;-68
2022/02/06 04:51:15;;;;;;;;;4.50;2.75;;;;;10.96;59.00;101492.53;5034484;28;45776;-68
2022/02/06 05:17:25;;;;;;;;;3.00;1.00;;;;;10.92;59.60;101477.47;5041282;28;45253;-68
2022/02/06 05:30:50;;;;;;;;;2.00;2.00;;;;;10.93;59.53;101476.56;5028041;28;45728;-67
2022/02/06 05:33:15;;;;;;;;;3.25;2.00;;;;;10.94;59.20;101455.16;5040979;28;45722;-68
2022/02/06 05:35:40;;;;;;;;;2.00;2.00;;;;;10.90;59.53;101441.91;5039016;28;45475;-68
2022/02/06 05:38:06;;;;;;;;;1.50;1.50;;;;;10.91;59.69;101433.84;5041133;28;45322;-68
2022/02/06 05:40:32;;;;;;;;;2.00;2.00;;;;;10.94;59.37;101447.16;5040518;28;46258;-67
2022/02/06 05:42:57;;;;;;;;;1.00;1.00;;;;;10.94;59.59;101447.16;5037133;28;45254;-68
2022/02/06 05:45:23;;;;;;;;;1.25;1.25;;;;;10.97;59.69;101445.31;5040571;28;45384;-68
2022/02/06 05:47:48;;;;;;;;;1.25;1.25;;;;;10.93;59.39;101433.81;5040983;28;45269;-68
2022/02/06 05:50:15;;;;;;;;;1.25;1.25;;;;;10.92;59.14;101435.59;5039092;28;46058;-67
2022/02/06 05:52:42;;;;;;;;;2.75;2.00;;;;;10.94;59.94;101427.53;5040359;28;45292;-68
2022/02/06 05:55:08;;;;;;;;;4.00;2.25;;;;;10.94;59.99;101431.13;5040515;28;45369;-68
2022/02/06 05:57:34;;;;;;;;;2.00;2.00;;;;;10.93;59.96;101412.44;5040427;28;46184;-67
2022/02/06 06:00:00;;;;;;;;;1.75;1.75;;;;;10.95;60.05;101426.66;5040315;28;45458;-68
2022/02/06 06:02:25;;;;;;;;;2.00;2.00;;;;;10.97;59.60;101434.63;5040824;28;45361;-67
2022/02/06 06:04:51;;;;;;;;;2.00;1.50;;;;;10.97;59.71;101432.81;5040326;28;45313;-67
2022/02/06 06:07:16;;;;;;;;;3.00;1.25;;;;;10.97;59.93;101429.28;5038814;28;45363;-68
2022/02/06 06:09:41;;;;;;;;;1.25;1.25;;;;;10.94;60.19;101417.75;5040530;28;46076;-68
2022/02/06 06:12:08;;;;;;;;;4.50;1.50;;;;;10.99;60.17;101422.09;5037877;28;45419;-68
2022/02/06 06:14:33;;;;;;;;;2.00;1.00;;;;;10.99;60.03;101424.78;5040091;28;45522;-68
2022/02/06 06:16:59;;;;;;;;;2.00;2.00;;;;;10.99;60.10;101420.31;5040335;28;45295;-68
2022/02/06 06:19:25;;;;;;;;;3.00;2.50;;;;;11.02;60.37;101427.38;5039288;28;46140;-68
2022/02/06 06:21:58;;;;;;;;;1.75;1.75;;;;;11.02;60.24;101428.25;5040039;28;45293;-68
2022/02/06 06:24:25;;;;;;;;;1.75;1.75;;;;;11.04;60.34;101420.19;5038709;28;45668;-67
2022/02/06 06:26:51;;;;;;;;;4.00;2.00;;;;;11.02;60.41;101401.53;5039968;28;45305;-68
2022/02/06 06:29:17;;;;;;;;;1.00;1.00;;;;;11.05;60.45;101405.94;5040418;28;45986;-68
2022/02/06 06:31:42;;;;;;;;;2.75;1.00;;;;;11.06;60.37;101397.00;5040248;28;45356;-68
2022/02/06 06:34:08;;;;;;;;;2.00;1.00;;;;;11.06;60.29;101391.66;5039962;28;45292;-68
2022/02/06 06:36:35;;;;;;;;;2.00;2.00;;;;;11.06;60.26;101383.63;5040106;28;45307;-68
2022/02/06 06:39:03;;;;;;;;;2.00;2.00;;;;;11.08;60.41;101388.03;5039916;28;46217;-68
2022/02/06 06:41:28;;;;;;;;;1.25;1.25;;;;;11.06;60.75;101397.88;5036267;28;45395;-68
2022/02/06 06:43:53;;;;;;;;;3.00;2.00;;;;;11.09;60.46;101407.63;5039796;28;45308;-68
2022/02/06 06:46:19;;;;;;;;;4.00;1.25;;;;;11.08;60.30;101405.88;5040157;28;45322;-68
2022/02/06 06:48:44;;;;;;;;;1.00;1.00;;;;;11.08;60.62;101412.09;5039729;28;45653;-68
2022/02/06 06:51:10;;;;;;;;;2.00;1.00;;;;;11.09;60.66;101388.91;5039807;28;45387;-68
2022/02/06 06:53:39;;;;;;;;;1.50;1.50;;;;;11.08;60.76;101381.81;5039629;28;45541;-68
2022/02/06 06:56:11;;;;;;;;;2.25;2.25;;;;;11.09;60.76;101386.25;5029872;28;45490;-68
2022/02/06 06:58:42;;;;;;;;;2.00;2.00;;;;;11.10;60.46;101385.34;5039789;28;45300;-68
2022/02/06 07:01:20;;;;;;;;;2.00;2.00;;;;;11.06;60.81;101384.53;5039776;28;45448;-68
2022/02/06 07:03:46;;;;;;;;;2.75;1.50;;;;;11.05;60.72;101365.88;5039705;28;45348;-68
2022/02/06 07:06:11;;;;;;;;;1.00;1.00;;;;;11.10;60.88;101358.63;5039706;28;45154;-68
2022/02/06 07:08:37;;;;;;;;;1.75;1.00;;;;;11.08;60.54;101361.31;5039013;28;45527;-68
2022/02/06 07:11:02;;;;;;;;;1.00;1.00;;;;;11.13;60.52;101364.75;5038442;28;45772;-68
2022/02/06 07:13:27;;;;;;;;;2.00;0.50;;;;;11.12;60.53;101365.66;5037716;28;45415;-68
2022/02/06 07:15:53;;;;;;;;;1.00;1.00;;;;;11.13;60.65;101364.75;5038247;28;45431;-68
2022/02/06 07:18:19;;;;;;;;;2.00;1.00;;;;;11.14;60.52;101346.91;5039087;28;46242;-68
2022/02/06 07:20:45;;;;;;;;;1.75;1.00;;;;;11.16;60.52;101353.13;5038058;28;45364;-68
2022/02/06 07:23:11;;;;;;;;;0.00;0.00;;;;;11.15;61.11;101361.19;5038835;28;45702;-68
2022/02/06 07:25:38;;;;;;;;;1.00;1.00;;;;;11.17;60.63;101348.66;5035365;28;45522;-68
2022/02/06 07:28:04;;;;;;;;;1.00;0.50;;;;;11.16;60.81;101346.88;5039290;28;46234;-68
2022/02/06 07:30:30;;;;;;;;;1.00;1.00;;;;;11.14;60.68;101344.25;5038857;28;45356;-68
2022/02/06 07:32:55;;;;;;;;;1.00;1.00;;;;;11.12;61.08;101332.72;5041659;28;45582;-68
2022/02/06 07:35:21;;;;;;;;;1.75;1.50;;;;;11.16;61.43;101357.56;5042107;28;45523;-68
2022/02/06 07:37:52;;;;;;;;;0.25;0.25;;;;;11.13;61.31;101337.16;5042947;28;45305;-68
2022/02/06 07:40:17;;;;;;;;;2.00;2.00;;;;;11.10;61.62;101332.75;5042276;28;45304;-68
2022/02/06 07:42:43;;;;;;;;;1.25;1.25;;;;;11.11;61.39;101339.00;5042900;28;45443;-68
2022/02/06 07:45:11;;;;;;;;;1.00;1.00;;;;;11.11;61.65;101331.00;5042450;28;45238;-68
2022/02/06 07:47:38;;;;;;;;;0.50;0.50;;;;;11.11;61.29;101317.63;5041807;28;46048;-68
2022/02/06 07:50:06;;;;;;;;;3.50;0.75;;;;;11.12;61.43;101303.34;5038133;28;45611;-68
2022/02/06 07:52:31;;;;;;;;;3.00;1.00;;;;;11.12;61.16;101301.53;5042417;28;45262;-68
2022/02/06 07:54:56;;;;;;;;;1.00;1.00;;;;;11.15;61.17;101308.59;5041795;28;45434;-68
2022/02/06 07:57:22;;;;;;;;;2.75;0.75;;;;;11.11;61.06;101297.13;5042388;28;46352;-68
2022/02/06 07:59:47;;;;;;;;;3.75;0.75;;;;;11.12;61.32;101301.53;5042024;28;45467;-68
2022/02/06 08:02:13;;;;;;;;;2.00;1.00;;;;;11.13;61.42;101286.41;5042084;28;45515;-68
2022/02/06 08:04:39;;;;;;;;;0.75;0.00;;;;;11.12;61.29;101280.16;5031436;28;45673;-68
2022/02/06 08:07:06;;;;;;;;;2.00;1.00;;;;;11.18;61.12;101279.13;5039371;28;46111;-67
2022/02/06 08:11:59;;;;;;;;;1.00;0.75;;;;;11.11;61.00;101251.72;5038716;28;45446;-70
2022/02/06 08:17:09;;;;;;;;;0.00;0.00;;;;;11.15;61.71;101246.28;5038294;28;45756;-69
2022/02/06 08:19:34;;;;;;;;;2.00;0.00;;;;;11.13;61.32;101247.19;5041621;28;45364;-69
2022/02/06 08:22:00;;;;;;;;;0.50;0.50;;;;;11.14;62.13;101250.72;5035817;28;45322;-68
2022/02/06 08:24:25;;;;;;;;;1.00;1.00;;;;;11.08;62.06;101241.09;5038222;28;45612;-71
2022/02/06 08:26:50;;;;;;;;;2.00;0.25;;;;;11.11;61.76;101249.03;5043818;28;46446;-71
2022/02/06 08:29:16;;;;;;;;;3.00;2.00;;;;;11.13;61.88;101238.31;5041961;28;45387;-72
2022/02/06 08:31:41;;;;;;;;;2.50;1.50;;;;;11.19;61.99;101242.59;5041944;28;45494;-71
2022/02/06 08:34:06;;;;;;;;;0.00;0.00;;;;;11.15;62.31;101231.13;5032449;28;45509;-70
2022/02/06 08:36:31;;;;;;;;;1.00;1.00;;;;;11.15;62.37;101232.94;5040657;28;46940;-70
2022/02/06 08:38:57;;;;;;;;;2.00;0.75;;;;;11.19;62.17;101237.25;5039294;28;45430;-70
2022/02/06 08:41:22;;;;;;;;;3.00;1.00;;;;;11.11;63.02;101216.97;5040353;28;45525;-69
2022/02/06 08:43:47;;;;;;;;;1.00;1.00;;;;;11.11;63.32;101213.44;5044079;28;45449;-70
2022/02/06 08:46:13;;;;;;;;;0.00;0.00;;;;;11.20;62.95;101217.66;5041736;28;45472;-69
2022/02/06 08:48:39;;;;;;;;;1.00;1.00;;;;;11.07;63.01;101199.25;5041123;28;45264;-69
2022/02/06 08:51:06;;;;;;;;;0.00;0.00;;;;;11.20;63.37;101217.66;5041787;28;45244;-68
2022/02/06 08:53:32;;;;;;;;;1.00;1.00;;;;;11.21;63.35;101214.94;5041478;28;45221;-69
2022/02/06 08:55:57;;;;;;;;;1.75;1.00;;;;;11.21;63.33;101211.34;5022035;28;46395;-69
2022/02/06 08:58:23;;;;;;;;;2.25;1.00;;;;;11.23;63.49;101204.19;5040479;28;45380;-68
2022/02/06 09:00:48;;;;;;;;;1.00;1.00;;;;;11.18;63.77;101198.97;5041802;28;45365;-68
2022/02/06 09:03:14;;;;;;;;;1.00;1.00;;;;;11.15;63.73;101182.16;5041402;28;45466;-68
2022/02/06 09:05:42;;;;;;;;;1.00;0.00;;;;;11.25;64.10;101189.00;5041133;28;46136;-68
2022/02/06 09:08:08;;;;;;;;;0.25;0.25;;;;;11.21;63.99;101185.53;5038484;28;45245;-71
2022/02/06 09:10:34;;;;;;;;;2.25;1.00;;;;;11.26;64.25;101193.41;5043290;28;45357;-69
2022/02/06 09:12:59;;;;;;;;;3.00;1.00;;;;;11.24;64.52;101174.75;5040587;28;45513;-70
2022/02/06 09:15:25;;;;;;;;;1.00;1.00;;;;;11.24;64.40;101174.75;5041314;28;45304;-70
2022/02/06 09:17:50;;;;;;;;;1.75;1.75;;;;;11.23;64.80;101166.78;5041278;28;45277;-70
2022/02/06 09:20:17;;;;;;;;;3.00;1.00;;;;;11.19;64.64;101160.63;5041242;28;45215;-70
2022/02/06 09:22:43;;;;;;;;;0.00;0.00;;;;;11.20;64.63;101166.88;5038339;28;45497;-70
2022/02/06 09:25:10;;;;;;;;;1.00;1.00;;;;;11.17;64.37;101158.94;5040471;28;47107;-74
2022/02/06 09:27:36;;;;;;;;;2.00;1.00;;;;;11.23;64.98;101174.81;5038101;28;45550;-73
2022/02/06 09:30:08;;;;;;;;;1.25;1.25;;;;;11.21;65.21;101158.81;5040876;28;45304;-81
2022/02/06 09:37:26;;;;;;;;;1.75;0.75;;;;;11.26;64.91;101158.66;5045046;28;47081;-80
2022/02/06 09:39:52;;;;;;;;;2.00;1.00;;;;;11.23;65.63;101148.09;5049749;28;45322;-82
2022/02/06 09:42:19;;;;;;;;;1.00;1.00;;;;;11.25;65.28;101139.09;5039089;28;45257;-83
2022/02/06 09:44:47;;;;;;;;;1.00;1.00;;;;;11.21;65.56;101152.56;5040680;28;45435;-80
2022/02/06 09:47:20;;;;;;;;;1.00;1.00;;;;;11.23;65.48;101154.28;5041068;28;45583;-84
2022/02/06 09:49:46;;;;;;;;;0.00;0.00;;;;;11.25;65.53;101146.25;5040752;28;45439;-81
2022/02/06 09:52:25;;;;;;;;;1.00;1.00;;;;;11.28;66.01;101148.81;5039829;28;45237;-84
2022/02/06 09:54:51;;;;;;;;;1.00;1.00;;;;;11.30;65.85;101152.31;5035818;28;46224;-76
2022/02/06 09:57:28;;;;;;;;;1.00;1.00;;;;;11.28;65.95;101144.34;5036140;28;45290;-69
2022/02/06 09:59:54;;;;;;;;;1.00;1.00;;;;;11.30;66.34;101142.50;5039037;28;45321;-70
2022/02/06 10:02:33;;;;;;;;;0.00;0.00;;;;;11.32;66.26;101142.47;5039324;28;45335;-70
2022/02/06 10:04:59;;;;;;;;;0.50;0.50;;;;;11.35;66.33;101131.69;5036762;28;47167;-69
2022/02/06 10:07:38;;;;;;;;;0.00;0.00;;;;;11.37;66.30;101135.19;5040051;28;45336;-69
2022/02/06 10:10:10;;;;;;;;;1.00;1.00;;;;;11.38;66.59;101136.94;5035619;28;45338;-70
2022/02/06 10:12:41;;;;;;;;;2.50;1.00;;;;;11.39;66.10;101122.63;5041866;28;45353;-69
2022/02/06 10:15:10;;;;;;;;;1.50;0.50;;;;;11.39;66.40;101122.63;5035801;28;46978;-70
2022/02/06 10:17:36;;;;;;;;;0.75;0.75;;;;;11.43;66.19;101118.97;5043019;28;45459;-70
2022/02/06 10:20:10;;;;;;;;;0.25;0.25;;;;;11.45;66.66;101122.47;5040299;28;45380;-70
2022/02/06 10:23:00;;;;;;;;;0.25;0.25;;;;;11.47;66.32;101135.78;5034412;28;45296;-70
2022/02/06 10:25:22;;;;;;;;;0.50;0.50;;;;;11.47;66.56;101136.66;5037943;28;46189;-69
2022/02/06 10:30:42;;;;;;;;;1.75;1.00;;;;;11.53;66.42;101140.97;5040372;28;45325;-70
2022/02/06 10:33:11;;;;;;;;;0.00;0.00;;;;;11.53;66.66;101140.97;5027271;28;45313;-70
2022/02/06 10:35:42;;;;;;;;;0.50;0.00;;;;;11.57;66.43;101139.94;5037916;28;46260;-69
2022/02/06 10:38:22;;;;;;;;;2.00;0.00;;;;;11.60;66.47;101138.97;5038644;28;45455;-70
2022/02/06 10:41:17;;;;;;;;;1.00;0.25;;;;;11.60;66.75;101133.63;5040081;28;45419;-69
2022/02/06 10:43:58;;;;;;;;;1.00;1.00;;;;;11.61;66.76;101122.00;5039943;28;45670;-71
2022/02/06 10:46:25;;;;;;;;;0.00;0.00;;;;;11.62;66.85;101129.09;5033784;28;47299;-71
2022/02/06 10:48:53;;;;;;;;;1.00;1.00;;;;;11.63;67.22;101115.69;5038299;28;45457;-70
2022/02/06 10:51:37;;;;;;;;;1.25;1.25;;;;;11.62;67.25;101113.94;5038204;28;45419;-71
2022/02/06 10:54:11;;;;;;;;;0.25;0.25;;;;;11.64;66.90;101119.22;5031468;28;45285;-71
2022/02/06 10:56:40;;;;;;;;;1.00;1.00;;;;;11.57;67.31;101104.31;5039356;28;45399;-71
2022/02/06 10:59:07;;;;;;;;;1.50;1.50;;;;;11.67;67.06;101106.63;5039767;28;45531;-71
2022/02/06 11:01:40;;;;;;;;;0.00;0.00;;;;;11.71;67.04;101098.53;5040054;28;45379;-72
2022/02/06 11:04:33;;;;;;;;;1.50;1.25;;;;;11.70;67.26;101100.31;5039693;28;45467;-71
2022/02/06 11:07:20;;;;;;;;;0.00;0.00;;;;;11.74;67.19;101093.06;5025232;28;46828;-70
2022/02/06 11:09:46;;;;;;;;;1.00;1.00;;;;;11.76;67.17;101078.75;5037204;28;45318;-69
2022/02/06 11:12:15;;;;;;;;;2.00;2.00;;;;;11.79;67.21;101075.09;5032928;28;45491;-70
2022/02/06 11:14:48;;;;;;;;;1.50;1.50;;;;;11.78;66.75;101066.19;5029863;28;45542;-70
2022/02/06 11:17:19;;;;;;;;;2.00;1.00;;;;;11.87;66.98;101089.09;5037965;28;46230;-70
2022/02/06 11:20:08;;;;;;;;;4.00;2.00;;;;;11.89;67.05;101060.47;5037916;28;45364;-70
2022/02/06 11:22:35;;;;;;;;;1.00;1.00;;;;;11.92;66.76;101030.13;5037018;28;45459;-70
2022/02/06 11:25:04;;;;;;;;;2.75;1.50;;;;;11.92;67.06;101038.16;5039223;28;45503;-69
2022/02/06 11:27:31;;;;;;;;;3.25;0.50;;;;;11.96;66.85;101038.00;5037668;28;45412;-69
2022/02/06 11:29:57;;;;;;;;;1.00;1.00;;;;;11.97;66.75;101025.50;5039383;28;45397;-68
2022/02/06 11:32:26;;;;;;;;;1.00;1.00;;;;;11.97;66.89;101007.63;5038857;28;45349;-72
2022/02/06 11:34:51;;;;;;;;;3.00;1.00;;;;;12.01;67.08;101036.06;5039517;28;45493;-72
2022/02/06 11:46:27;;;;;;;;;1.00;1.00;;;;;12.06;66.86;101011.78;5039232;28;45478;-70
2022/02/06 11:49:08;;;;;;;;;1.00;1.00;;;;;12.02;66.55;100997.66;5034673;28;45461;-74
2022/02/06 11:51:34;;;;;;;;;1.00;1.00;;;;;11.99;66.67;101011.13;5039081;28;45770;-75
2022/02/06 11:54:29;;;;;;;;;1.00;1.00;;;;;12.06;67.00;101011.78;5038302;28;45385;-70
2022/02/06 11:59:42;;;;;;;;;3.00;1.50;;;;;12.10;67.04;100999.22;5039043;28;45503;-71
2022/02/06 12:02:28;;;;;;;;;1.00;1.00;;;;;12.07;66.98;100992.16;5038992;28;46183;-68
2022/02/06 12:05:08;;;;;;;;;0.00;0.00;;;;;12.15;66.87;100999.91;5037525;28;45265;-67
2022/02/06 12:07:52;;;;;;;;;1.00;1.00;;;;;12.16;66.85;101005.22;5037970;28;45628;-67
2022/02/06 12:10:33;;;;;;;;;2.00;1.00;;;;;12.18;66.89;101007.84;5045603;28;45599;-75
2022/02/06 12:13:17;;;;;;;;;0.25;0.25;;;;;12.20;66.85;101001.50;5037316;28;45425;-67
2022/02/06 12:15:52;;;;;;;;;1.00;1.00;;;;;12.20;67.26;100987.25;5035522;28;45332;-66
2022/02/06 12:18:35;;;;;;;;;1.25;0.75;;;;;12.21;67.29;100994.31;5040368;28;45335;-67
2022/02/06 12:21:12;;;;;;;;;1.50;1.50;;;;;12.23;67.06;101000.53;5040638;28;46088;-67
2022/02/06 12:23:59;;;;;;;;;0.00;0.00;;;;;12.22;66.85;100978.22;5039922;28;45359;-67
2022/02/06 12:26:30;;;;;;;;;2.00;0.50;;;;;12.27;67.25;100967.34;5039619;28;45335;-67
2022/02/06 12:29:11;;;;;;;;;2.50;0.00;;;;;12.19;67.08;100938.19;5040793;28;45468;-67
2022/02/06 12:31:46;;;;;;;;;1.00;1.00;;;;;12.31;67.04;100969.00;5040727;28;47136;-66
2022/02/06 12:36:53;;;;;;;;;0.50;0.50;;;;;12.33;67.14;100961.78;5036063;28;45459;-66
2022/02/06 12:37:23;;;;;;;;;2.00;0.00;;;;;12.36;67.11;100968.81;5036184;28;45490;-66
2022/02/06 12:39:48;;;;;;;;;0.00;0.00;;;;;12.39;67.16;100952.66;5037327;28;45708;-66
2022/02/06 12:42:17;;;;;;;;;0.00;0.00;;;;;12.41;66.95;100948.09;5030401;28;47291;-66
2022/02/06 12:44:44;;;;;;;;;0.00;0.00;;;;;12.40;67.22;100952.59;5036814;28;45672;-65
2022/02/06 12:47:13;;;;;;;;;1.50;0.00;;;;;12.40;66.90;100941.88;5037631;28;45728;-70
2022/02/06 12:49:41;;;;;;;;;0.00;0.00;;;;;12.46;67.12;100951.50;5037239;28;45523;-68
2022/02/06 12:52:07;;;;;;;;;0.00;0.00;;;;;12.48;66.85;100930.91;5034621;28;46963;-67
2022/02/06 12:54:33;;;;;;;;;0.75;0.00;;;;;12.48;66.65;100938.94;5036340;28;45549;-66
2022/02/06 12:57:00;;;;;;;;;0.00;0.00;;;;;12.52;66.73;100937.03;5041907;28;45859;-67
2022/02/06 12:59:29;;;;;;;;;2.00;0.00;;;;;12.58;66.65;100934.97;5032884;28;45521;-68
2022/02/06 13:01:55;;;;;;;;;0.75;0.75;;;;;12.55;66.52;100929.75;5033959;28;47071;-70
2022/02/06 13:04:27;;;;;;;;;1.00;1.00;;;;;12.62;66.45;100938.41;5036526;28;45519;-70
2022/02/06 13:06:53;;;;;;;;;1.75;0.00;;;;;12.61;66.60;100931.31;5035600;28;45557;-69
2022/02/06 13:09:19;;;;;;;;;2.00;0.25;;;;;12.64;66.54;100933.88;5037427;28;45502;-70
2022/02/06 13:12:05;;;;;;;;;0.00;0.00;;;;;12.63;66.68;100939.28;5036342;28;46335;-69
2022/02/06 13:14:48;;;;;;;;;0.00;0.00;;;;;12.64;66.79;100930.31;5033043;28;45584;-67
2022/02/06 13:17:29;;;;;;;;;0.00;0.00;;;;;12.64;66.95;100957.09;5035849;28;45439;-68
2022/02/06 13:34:31;;;;;;;;;0.00;0.00;;;;;12.71;67.39;100953.25;5033563;28;45504;-67
2022/02/06 13:39:10;;;;;;;;;0.00;0.00;;;;;12.69;68.13;100939.06;5037327;28;45940;-67
2022/02/06 13:41:36;;;;;;;;;0.25;0.25;;;;;12.73;67.81;100933.53;5036898;28;45558;-67
2022/02/06 13:44:04;;;;;;;;;0.50;0.50;;;;;12.75;67.98;100930.78;5035296;28;46099;-67
2022/02/06 13:46:33;;;;;;;;;1.00;0.00;;;;;12.73;67.89;100922.81;5034698;28;45483;-66
2022/02/06 13:49:00;;;;;;;;;0.25;0.00;;;;;12.73;67.96;100919.25;5036874;28;45415;-66
2022/02/06 13:51:34;;;;;;;;;0.00;0.00;;;;;12.74;67.95;100918.31;5037111;28;45839;-66
2022/02/06 13:54:03;;;;;;;;;1.00;0.00;;;;;12.75;67.97;100906.69;5035067;28;46161;-66
2022/02/06 13:56:30;;;;;;;;;2.00;0.00;;;;;12.77;68.01;100894.97;5014888;28;47301;-69
2022/02/06 13:59:00;;;;;;;;;0.00;0.00;;;;;12.78;68.45;100877.97;5030869;28;45749;-69
2022/02/06 14:01:39;;;;;;;;;0.00;0.00;;;;;12.80;68.31;100877.91;5031666;28;45575;-71
2022/02/06 14:04:18;;;;;;;;;0.00;0.00;;;;;12.79;68.18;100881.50;5036318;28;46154;-73
2022/02/06 14:06:51;;;;;;;;;1.00;1.00;;;;;12.79;68.45;100863.63;5036704;28;45415;-71
2022/02/06 14:09:28;;;;;;;;;1.00;1.00;;;;;12.79;68.32;100858.28;5035124;28;45846;-71